Huvudsida
METAR-TAF:

METAR-TAF

Flygplatser :

Sandnessjøen, Norge

Sandnessjøens flygplats. Stokka

latitud: 65-58N, longitud: 012-28E, höjd: 1 m

Aktuellt väderrapport

Denna rapport gjordes för 29 minuter sedan, klockan 10:20 UTC
Vind 7 kt varierande vindriktning
Temperatur 0°C
Fuktighet 51%
Tryck 990 hPa
Sikt 10 km eller mer
Få moln på en höjd av 4500 ft
Spridda moln på en höjd av 7000 ft
skurar i närheten

METAR: ENST 171020Z VRB07KT 9999 VCSH FEW045 SCT070 M00/M09 Q0990 RMK WIND 300FT 11023G40KT TURB WRNG-SEE IPPC

Tid: 11:49 (10:49 UTC)


TAF: saknas

Aktuella väderrapporter och prognoser från 4000 flygplatser (METAR- och TAF-rapporter).

De tillgängliga stationerna syns som gula och röda prickar på kartan.

För musen över prickarna för att se namnen på stationerna.

Klicka sedan för att få väderrapporter och prognoser.

För att ändra kartan: Klicka på de gröna knapparna med ett svart kors på för att zooma in; den gröna knappen med ett streck på för att zooma ut; eller på de gröna pilarna för angränsande kartor.


METAR-TAF: